createdAt,value
2023-02-13T00:00:12.636Z,-2.66
2023-02-13T00:01:09.206Z,-2.64
2023-02-13T00:02:05.850Z,-2.94
2023-02-13T00:03:02.943Z,-2.62
2023-02-13T00:04:00.434Z,-2.64
2023-02-13T00:04:57.059Z,-2.68
2023-02-13T00:05:53.656Z,-2.55
2023-02-13T00:06:50.232Z,-2.38
2023-02-13T00:07:47.011Z,-2.27
2023-02-13T00:08:43.653Z,-2.29
2023-02-13T00:09:40.915Z,-2.26
2023-02-13T00:10:37.713Z,-2.26
2023-02-13T00:11:34.262Z,-2.30
2023-02-13T00:12:30.997Z,-2.39
2023-02-13T00:13:27.777Z,-2.40
2023-02-13T00:14:24.366Z,-3.56
2023-02-13T00:15:21.005Z,-2.43
2023-02-13T00:16:17.739Z,-2.29
2023-02-13T00:17:14.334Z,-2.31
2023-02-13T00:18:11.286Z,-2.18
2023-02-13T00:19:07.925Z,-2.23
2023-02-13T00:20:05.686Z,-2.62
2023-02-13T00:21:08.526Z,-2.49
2023-02-13T00:22:05.115Z,-2.46
2023-02-13T00:23:02.076Z,-2.44
2023-02-13T00:23:58.676Z,-2.36
2023-02-13T00:24:55.256Z,-2.35
2023-02-13T00:25:51.862Z,-2.30
2023-02-13T00:26:48.431Z,-2.47
2023-02-13T00:27:45.023Z,-2.23
2023-02-13T00:28:41.734Z,-2.14
2023-02-13T00:29:38.558Z,-2.21
2023-02-13T00:30:35.145Z,-2.18
2023-02-13T00:31:31.802Z,-2.33
2023-02-13T00:32:28.539Z,-2.27
2023-02-13T00:33:25.134Z,-2.30
2023-02-13T00:34:21.706Z,-2.29
2023-02-13T00:35:18.430Z,-2.25
2023-02-13T00:36:20.843Z,-2.18
2023-02-13T00:37:17.419Z,-2.02
2023-02-13T00:38:13.989Z,-2.11
2023-02-13T00:39:12.197Z,-2.13
2023-02-13T00:40:09.325Z,-2.29
2023-02-13T00:41:06.043Z,-2.38
2023-02-13T00:42:02.629Z,-2.28
2023-02-13T00:42:59.248Z,-2.18
2023-02-13T00:43:55.853Z,-2.21
2023-02-13T00:44:54.020Z,-2.06
2023-02-13T00:45:50.583Z,-2.10
2023-02-13T00:46:47.244Z,-2.00
2023-02-13T00:47:43.925Z,-2.01
2023-02-13T00:48:40.942Z,-2.26
2023-02-13T00:49:37.533Z,-2.22
2023-02-13T00:50:34.117Z,-2.76
2023-02-13T00:51:31.016Z,-2.25
2023-02-13T00:52:27.584Z,-2.32
2023-02-13T00:53:25.979Z,-2.44
2023-02-13T00:54:22.586Z,-2.45
2023-02-13T00:55:19.224Z,-2.39
2023-02-13T00:56:16.802Z,-2.32
2023-02-13T00:57:13.571Z,-2.64
2023-02-13T00:58:10.373Z,-2.20
2023-02-13T00:59:07.045Z,-2.23
2023-02-13T01:00:03.914Z,-2.23
2023-02-13T01:01:00.623Z,-2.34
2023-02-13T01:01:57.382Z,-2.33
2023-02-13T01:02:54.106Z,-2.97
2023-02-13T01:03:50.745Z,-2.61
2023-02-13T01:04:47.357Z,-2.68
2023-02-13T01:05:44.984Z,-3.04
2023-02-13T01:06:41.729Z,-3.45
2023-02-13T01:07:38.321Z,-2.36
2023-02-13T01:08:35.426Z,-2.37
2023-02-13T01:09:32.114Z,-2.54
2023-02-13T01:10:28.768Z,-2.23
2023-02-13T01:11:25.505Z,-2.63
2023-02-13T01:12:22.207Z,-2.35
2023-02-13T01:13:18.832Z,-2.31
2023-02-13T01:14:16.876Z,-2.43
2023-02-13T01:15:13.476Z,-2.42
2023-02-13T01:16:10.211Z,-2.34
2023-02-13T01:17:06.840Z,-2.39
2023-02-13T01:18:04.264Z,-2.42
2023-02-13T01:19:00.848Z,-2.19
2023-02-13T01:19:57.454Z,-2.01
2023-02-13T01:21:02.677Z,-2.06
2023-02-13T01:21:59.249Z,-1.98
2023-02-13T01:22:57.480Z,-1.66
2023-02-13T01:23:54.119Z,-1.73
2023-02-13T01:24:50.844Z,-1.81
2023-02-13T01:25:47.418Z,-1.87
2023-02-13T01:26:44.246Z,-1.93
2023-02-13T01:27:40.952Z,-1.86
2023-02-13T01:28:37.665Z,-1.84
2023-02-13T01:29:34.665Z,-1.79
2023-02-13T01:30:31.279Z,-1.73
2023-02-13T01:31:28.018Z,-2.00
2023-02-13T01:32:24.721Z,-1.75
2023-02-13T01:33:22.669Z,-2.32
2023-02-13T01:34:19.281Z,-2.21
2023-02-13T01:35:16.604Z,-2.08
2023-02-13T01:36:16.830Z,-2.24
2023-02-13T01:37:14.100Z,-2.24
2023-02-13T01:38:10.756Z,-2.17
2023-02-13T01:39:07.526Z,-2.10
2023-02-13T01:40:04.378Z,-2.28
2023-02-13T01:41:01.014Z,-2.20
2023-02-13T01:41:57.651Z,-2.27
2023-02-13T01:42:54.262Z,-2.29
2023-02-13T01:43:53.146Z,-2.32
2023-02-13T01:44:55.275Z,-2.08
2023-02-13T01:45:56.461Z,-1.73
2023-02-13T01:46:53.227Z,-1.85
2023-02-13T01:47:53.095Z,-1.90
2023-02-13T01:48:51.385Z,-1.97
2023-02-13T01:49:49.539Z,-1.88
2023-02-13T01:50:55.528Z,-1.89
2023-02-13T01:51:56.208Z,-2.21
2023-02-13T01:52:59.917Z,-2.37
2023-02-13T01:54:02.835Z,-2.43
2023-02-13T01:54:59.490Z,-2.04
2023-02-13T01:56:07.202Z,-2.08
2023-02-13T01:57:09.517Z,-2.22
2023-02-13T01:58:09.874Z,-2.18
2023-02-13T01:59:13.361Z,-1.96
2023-02-13T02:00:16.965Z,-2.55
2023-02-13T02:01:13.876Z,-2.08
2023-02-13T02:02:10.918Z,-2.07
2023-02-13T02:03:14.130Z,-2.21
2023-02-13T02:04:19.230Z,-2.53
2023-02-13T02:05:18.405Z,-2.29
2023-02-13T02:06:24.236Z,-2.43
2023-02-13T02:07:24.950Z,-2.62
2023-02-13T02:08:21.859Z,-2.31
2023-02-13T02:09:25.972Z,-2.36
2023-02-13T02:10:22.962Z,-2.63
2023-02-13T02:11:30.294Z,-2.37
2023-02-13T02:12:34.072Z,-2.38
2023-02-13T02:13:30.680Z,-2.39
2023-02-13T02:14:27.891Z,-2.35
2023-02-13T02:15:25.168Z,-2.31
2023-02-13T02:16:21.846Z,-2.28
2023-02-13T02:17:21.678Z,-2.24
2023-02-13T02:18:23.963Z,-2.32
2023-02-13T02:19:56.482Z,-2.41
2023-02-13T02:21:10.916Z,-2.43
2023-02-13T02:22:39.603Z,-2.42
2023-02-13T02:24:08.159Z,-2.96
2023-02-13T02:25:16.799Z,-2.58
2023-02-13T02:26:35.345Z,-2.75
2023-02-13T02:27:51.816Z,-2.66
2023-02-13T02:29:09.523Z,-2.43
2023-02-13T02:30:38.772Z,-2.44
2023-02-13T02:32:03.477Z,-2.51
2023-02-13T02:33:27.896Z,-2.70
2023-02-13T02:34:46.599Z,-2.72
2023-02-13T02:35:46.237Z,-2.66
2023-02-13T02:37:17.356Z,-2.86
2023-02-13T02:38:45.704Z,-2.69
2023-02-13T02:39:57.569Z,-2.77
2023-02-13T02:41:04.993Z,-2.72
2023-02-13T02:42:23.336Z,-2.60
2023-02-13T02:43:47.985Z,-2.95
2023-02-13T02:44:53.674Z,-2.71
2023-02-13T02:46:02.222Z,-2.78
2023-02-13T02:47:43.097Z,-2.81
2023-02-13T02:49:05.670Z,-2.61
2023-02-13T02:50:24.999Z,-2.55
2023-02-13T02:51:32.889Z,-2.37
2023-02-13T02:52:46.449Z,-2.38
2023-02-13T02:54:26.518Z,-2.39
2023-02-13T02:55:50.402Z,-2.46
2023-02-13T02:56:49.020Z,-2.52
2023-02-13T02:58:21.936Z,-3.05
2023-02-13T02:59:40.568Z,-2.58
2023-02-13T03:01:01.608Z,-2.79
2023-02-13T03:02:17.745Z,-2.75
2023-02-13T03:03:40.234Z,-2.73
2023-02-13T03:05:04.593Z,-2.72
2023-02-13T03:06:14.090Z,-2.75
2023-02-13T03:07:14.705Z,-2.70
2023-02-13T03:08:12.112Z,-3.26
2023-02-13T03:09:33.368Z,-2.83
2023-02-13T03:10:53.874Z,-2.82
2023-02-13T03:12:12.955Z,-2.81
2023-02-13T03:13:33.397Z,-2.79
2023-02-13T03:14:30.050Z,-3.39
2023-02-13T03:15:27.424Z,-2.79
2023-02-13T03:16:43.880Z,-3.00
2023-02-13T03:17:59.595Z,-2.76
2023-02-13T03:19:16.689Z,-2.70
2023-02-13T03:20:41.090Z,-2.60
2023-02-13T03:22:13.163Z,-2.60
2023-02-13T03:23:17.376Z,-2.74
2023-02-13T03:24:25.938Z,-2.92
2023-02-13T03:25:38.826Z,-2.85
2023-02-13T03:26:50.381Z,-2.94
2023-02-13T03:28:12.202Z,-3.03
2023-02-13T03:29:36.965Z,-3.21
2023-02-13T03:30:51.815Z,-3.11
2023-02-13T03:32:25.855Z,-3.11
2023-02-13T03:33:42.815Z,-3.20
2023-02-13T03:35:05.749Z,-3.16
2023-02-13T03:36:31.761Z,-3.22
2023-02-13T03:37:54.595Z,-3.16
2023-02-13T03:38:56.928Z,-3.13
2023-02-13T03:40:05.160Z,-3.14
2023-02-13T03:41:19.614Z,-3.43
2023-02-13T03:42:27.314Z,-3.18
2023-02-13T03:43:27.773Z,-2.77
2023-02-13T03:44:40.986Z,-2.66
2023-02-13T03:45:53.829Z,-2.60
2023-02-13T03:46:53.549Z,-2.71
2023-02-13T03:47:55.194Z,-2.80
2023-02-13T03:49:10.600Z,-3.03
2023-02-13T03:50:09.930Z,-3.35
2023-02-13T03:51:10.014Z,-3.48
2023-02-13T03:52:19.159Z,-3.65
2023-02-13T03:53:16.520Z,-3.43
2023-02-13T03:54:21.986Z,-3.59
2023-02-13T03:55:48.831Z,-3.48
2023-02-13T03:57:09.298Z,-3.68
2023-02-13T03:58:29.852Z,-4.07
2023-02-13T03:59:33.894Z,-3.79
2023-02-13T04:00:40.018Z,-3.81
2023-02-13T04:01:38.335Z,-3.74
2023-02-13T04:02:46.967Z,-3.67
2023-02-13T04:03:52.624Z,-3.55
2023-02-13T04:04:57.931Z,-3.58
2023-02-13T04:06:08.834Z,-3.72
2023-02-13T04:07:10.760Z,-4.23
2023-02-13T04:08:07.500Z,-4.14
2023-02-13T04:09:04.285Z,-4.41
2023-02-13T04:10:10.394Z,-3.92
2023-02-13T04:11:25.483Z,-3.57
2023-02-13T04:12:43.393Z,-3.61
2023-02-13T04:13:47.652Z,-3.77
2023-02-13T04:14:53.261Z,-3.76
2023-02-13T04:15:58.458Z,-3.99
2023-02-13T04:17:05.807Z,-3.97
2023-02-13T04:18:10.869Z,-3.93
2023-02-13T04:19:08.838Z,-3.90
2023-02-13T04:20:07.171Z,-3.84
2023-02-13T04:21:05.450Z,-3.50
2023-02-13T04:22:03.145Z,-3.62
2023-02-13T04:23:08.594Z,-3.70
2023-02-13T04:24:05.584Z,-4.13
2023-02-13T04:25:02.202Z,-4.09
2023-02-13T04:26:02.480Z,-4.09
2023-02-13T04:26:59.466Z,-4.04
2023-02-13T04:27:56.065Z,-4.37
2023-02-13T04:28:52.684Z,-4.29
2023-02-13T04:29:49.244Z,-4.29
2023-02-13T04:30:45.910Z,-4.40
2023-02-13T04:31:42.707Z,-4.07
2023-02-13T04:32:39.378Z,-4.06
2023-02-13T04:33:36.038Z,-4.07
2023-02-13T04:34:32.718Z,-4.12
2023-02-13T04:35:29.343Z,-4.01
2023-02-13T04:36:26.138Z,-4.04
2023-02-13T04:37:22.762Z,-4.06
2023-02-13T04:38:19.364Z,-4.02
2023-02-13T04:39:16.043Z,-4.03
2023-02-13T04:40:12.915Z,-4.48
2023-02-13T04:41:09.554Z,-4.28
2023-02-13T04:42:06.192Z,-4.38
2023-02-13T04:43:02.872Z,-4.84
2023-02-13T04:43:59.472Z,-4.60
2023-02-13T04:44:56.105Z,-4.49
2023-02-13T04:45:52.751Z,-4.25
2023-02-13T04:46:49.429Z,-4.35
2023-02-13T04:47:53.830Z,-4.10
2023-02-13T04:48:50.446Z,-4.24
2023-02-13T04:49:47.109Z,-4.14
2023-02-13T04:50:44.116Z,-4.18
2023-02-13T04:51:41.353Z,-4.14
2023-02-13T04:52:38.034Z,-4.27
2023-02-13T04:53:34.586Z,-4.39
2023-02-13T04:54:31.186Z,-4.40
2023-02-13T04:55:28.792Z,-4.46
2023-02-13T04:56:25.426Z,-4.42
2023-02-13T04:57:22.063Z,-4.53
2023-02-13T04:58:18.713Z,-4.37
2023-02-13T04:59:15.389Z,-4.06
2023-02-13T05:00:12.610Z,-3.63
2023-02-13T05:01:15.965Z,-3.88
2023-02-13T05:02:12.691Z,-4.04
2023-02-13T05:03:11.614Z,-4.06
2023-02-13T05:04:08.312Z,-4.58
2023-02-13T05:05:05.193Z,-4.31
2023-02-13T05:06:01.770Z,-4.18
2023-02-13T05:06:58.483Z,-4.28
2023-02-13T05:07:55.073Z,-4.28
2023-02-13T05:08:51.647Z,-4.38
2023-02-13T05:09:48.377Z,-4.39
2023-02-13T05:10:44.972Z,-4.59
2023-02-13T05:11:41.648Z,-4.50
2023-02-13T05:12:38.633Z,-4.44
2023-02-13T05:13:35.372Z,-4.40
2023-02-13T05:14:31.924Z,-4.48
2023-02-13T05:15:29.111Z,-4.44
2023-02-13T05:16:25.864Z,-4.55
2023-02-13T05:17:22.512Z,-4.94
2023-02-13T05:18:20.082Z,-4.69
2023-02-13T05:19:17.283Z,-4.76
2023-02-13T05:20:14.490Z,-4.75
2023-02-13T05:21:29.748Z,-4.73
2023-02-13T05:22:45.256Z,-4.58
2023-02-13T05:23:41.932Z,-4.62
2023-02-13T05:24:38.597Z,-4.00
2023-02-13T05:25:37.542Z,-3.62
2023-02-13T05:26:34.127Z,-3.37
2023-02-13T05:27:30.740Z,-3.57
2023-02-13T05:28:45.890Z,-3.98
2023-02-13T05:29:42.456Z,-4.21
2023-02-13T05:30:40.211Z,-4.14
2023-02-13T05:31:36.959Z,-4.18
2023-02-13T05:32:33.603Z,-4.25
2023-02-13T05:33:30.190Z,-4.43
2023-02-13T05:34:28.180Z,-4.44
2023-02-13T05:35:25.713Z,-4.53
2023-02-13T05:36:22.373Z,-4.58
2023-02-13T05:37:18.915Z,-4.81
2023-02-13T05:38:15.522Z,-4.60
2023-02-13T05:39:12.992Z,-4.49
2023-02-13T05:40:11.960Z,-4.67
2023-02-13T05:41:08.602Z,-4.57
2023-02-13T05:42:05.377Z,-4.47
2023-02-13T05:43:01.916Z,-4.66
2023-02-13T05:43:58.579Z,-4.37
2023-02-13T05:44:55.153Z,-4.40
2023-02-13T05:45:52.357Z,-4.42
2023-02-13T05:46:49.448Z,-4.39
2023-02-13T05:47:46.048Z,-4.48
2023-02-13T05:48:42.700Z,-4.74
2023-02-13T05:49:39.379Z,-4.51
2023-02-13T05:50:36.076Z,-4.43
2023-02-13T05:51:33.125Z,-4.45
2023-02-13T05:52:29.685Z,-4.44
2023-02-13T05:53:26.650Z,-4.83
2023-02-13T05:54:23.302Z,-4.34
2023-02-13T05:55:19.854Z,-4.31
2023-02-13T05:56:16.649Z,-4.64
2023-02-13T05:57:13.191Z,-4.25
2023-02-13T05:58:09.771Z,-4.22
2023-02-13T05:59:06.832Z,-4.11
2023-02-13T06:00:04.766Z,-4.10
2023-02-13T06:01:01.679Z,-4.12
2023-02-13T06:01:58.298Z,-4.09
2023-02-13T06:02:54.906Z,-3.96
2023-02-13T06:03:52.030Z,-4.00
2023-02-13T06:04:48.620Z,-3.93
2023-02-13T06:05:45.273Z,-3.82
2023-02-13T06:06:41.949Z,-3.92
2023-02-13T06:07:38.535Z,-4.00
2023-02-13T06:08:35.241Z,-4.06
2023-02-13T06:09:31.790Z,-3.91
2023-02-13T06:10:28.352Z,-4.17
2023-02-13T06:11:24.932Z,-3.86
2023-02-13T06:12:21.515Z,-3.82
2023-02-13T06:13:18.711Z,-3.84
2023-02-13T06:14:16.839Z,-3.77
2023-02-13T06:15:14.048Z,-3.78
2023-02-13T06:16:11.944Z,-3.80
2023-02-13T06:17:08.843Z,-3.80
2023-02-13T06:18:05.584Z,-3.70
2023-02-13T06:19:02.597Z,-3.70
2023-02-13T06:19:59.129Z,-3.67
2023-02-13T06:20:56.042Z,-3.66
2023-02-13T06:21:52.862Z,-3.54
2023-02-13T06:22:51.187Z,-3.83
2023-02-13T06:23:47.740Z,-3.95
2023-02-13T06:24:44.350Z,-3.59
2023-02-13T06:25:41.449Z,-3.67
2023-02-13T06:26:38.024Z,-3.58
2023-02-13T06:27:34.628Z,-4.18
2023-02-13T06:28:31.531Z,-3.42
2023-02-13T06:29:28.208Z,-3.88
2023-02-13T06:30:25.019Z,-3.25
2023-02-13T06:31:22.164Z,-3.06
2023-02-13T06:32:18.848Z,-3.03
2023-02-13T06:33:15.516Z,-2.95
2023-02-13T06:34:12.113Z,-2.89
2023-02-13T06:35:09.175Z,-3.21
2023-02-13T06:36:06.191Z,-2.77
2023-02-13T06:37:02.943Z,-2.68
2023-02-13T06:37:59.560Z,-2.63
2023-02-13T06:38:56.502Z,-2.57
2023-02-13T06:39:53.096Z,-2.51
2023-02-13T06:40:50.173Z,-2.54
2023-02-13T06:41:46.726Z,-2.61
2023-02-13T06:42:44.260Z,-2.53
2023-02-13T06:43:40.993Z,-2.58
2023-02-13T06:44:37.538Z,-2.49
2023-02-13T06:45:34.134Z,-2.35
2023-02-13T06:46:30.725Z,-2.30
2023-02-13T06:47:27.507Z,-2.58
2023-02-13T06:48:24.122Z,-2.53
2023-02-13T06:49:20.757Z,-2.20
2023-02-13T06:50:18.170Z,-1.93
2023-02-13T06:51:14.769Z,-1.74
2023-02-13T06:52:11.427Z,-1.65
2023-02-13T06:53:08.358Z,-1.95
2023-02-13T06:54:05.060Z,-1.99
2023-02-13T06:55:01.787Z,-1.72
2023-02-13T06:55:58.445Z,-1.42
2023-02-13T06:56:55.065Z,-1.56
2023-02-13T06:57:51.617Z,-1.36
2023-02-13T06:58:48.176Z,-0.88
2023-02-13T06:59:44.975Z,-1.19
2023-02-13T07:00:41.698Z,-1.31
2023-02-13T07:01:38.262Z,-1.43
2023-02-13T07:02:34.897Z,-1.17
2023-02-13T07:03:31.550Z,-1.21
2023-02-13T07:04:28.595Z,-1.12
2023-02-13T07:05:25.177Z,-1.01
2023-02-13T07:06:22.102Z,-1.13
2023-02-13T07:07:18.686Z,-1.05
2023-02-13T07:08:15.268Z,-1.23
2023-02-13T07:09:13.562Z,-1.42
2023-02-13T07:10:13.074Z,-1.57
2023-02-13T07:11:16.401Z,-1.29
2023-02-13T07:12:12.965Z,-1.12
2023-02-13T07:13:10.498Z,-1.27
2023-02-13T07:14:07.890Z,-0.73
2023-02-13T07:15:05.289Z,-0.74
2023-02-13T07:16:02.171Z,-1.26
2023-02-13T07:16:59.294Z,-0.79
2023-02-13T07:17:57.678Z,-0.59
2023-02-13T07:18:54.389Z,-0.20
2023-02-13T07:19:50.942Z,-0.44
2023-02-13T07:20:47.579Z,-0.75
2023-02-13T07:21:44.210Z,-0.99
2023-02-13T07:22:40.805Z,-0.75
2023-02-13T07:23:37.464Z,-1.04
2023-02-13T07:24:35.485Z,-1.67
2023-02-13T07:25:32.609Z,-1.00
2023-02-13T07:26:29.708Z,-0.95
2023-02-13T07:27:29.283Z,-1.08
2023-02-13T07:28:26.508Z,-1.22
2023-02-13T07:29:23.097Z,-1.57
2023-02-13T07:30:19.740Z,-0.91
2023-02-13T07:31:16.644Z,-0.76
2023-02-13T07:32:13.474Z,-0.60
2023-02-13T07:33:11.706Z,-0.68
2023-02-13T07:34:09.965Z,-0.74
2023-02-13T07:35:06.609Z,-0.49
2023-02-13T07:36:04.460Z,-0.27
2023-02-13T07:37:01.030Z,-0.14
2023-02-13T07:37:58.025Z,0.03
2023-02-13T07:38:54.718Z,-0.28
2023-02-13T07:39:51.415Z,-0.17
2023-02-13T07:40:48.071Z,-0.24
2023-02-13T07:41:44.854Z,-0.12
2023-02-13T07:42:41.420Z,-0.10
2023-02-13T07:43:38.097Z,-0.18
2023-02-13T07:44:34.737Z,-0.18
2023-02-13T07:45:31.497Z,0.57
2023-02-13T07:46:28.189Z,0.22
2023-02-13T07:47:24.786Z,0.21
2023-02-13T07:48:23.291Z,0.31
2023-02-13T07:49:19.942Z,0.35
2023-02-13T07:50:16.624Z,-0.26
2023-02-13T07:51:13.253Z,0.28
2023-02-13T07:52:09.995Z,0.46
2023-02-13T07:53:06.644Z,0.74
2023-02-13T07:54:03.557Z,0.36
2023-02-13T07:55:00.208Z,0.47
2023-02-13T07:55:57.180Z,0.34
2023-02-13T07:56:53.994Z,0.33
2023-02-13T07:57:51.373Z,0.05
2023-02-13T07:58:47.993Z,0.56
2023-02-13T07:59:45.354Z,0.63
2023-02-13T08:00:42.024Z,1.02
2023-02-13T08:01:38.758Z,1.58
2023-02-13T08:02:35.407Z,1.79
2023-02-13T08:03:32.034Z,1.18
2023-02-13T08:04:29.168Z,0.74
2023-02-13T08:05:25.811Z,0.44
2023-02-13T08:06:22.835Z,1.07
2023-02-13T08:07:19.894Z,1.29
2023-02-13T08:08:17.302Z,1.07
2023-02-13T08:09:39.739Z,0.77
2023-02-13T08:10:55.906Z,1.58
2023-02-13T08:11:53.613Z,0.78
2023-02-13T08:12:51.521Z,0.61
2023-02-13T08:13:48.131Z,0.80
2023-02-13T08:14:44.855Z,0.59
2023-02-13T08:15:41.687Z,0.68
2023-02-13T08:16:38.380Z,0.53
2023-02-13T08:17:34.968Z,0.68
2023-02-13T08:18:31.580Z,0.80
2023-02-13T08:19:28.385Z,0.57
2023-02-13T08:20:25.089Z,0.47
2023-02-13T08:21:21.737Z,0.74
2023-02-13T08:22:18.310Z,1.62
2023-02-13T08:23:14.953Z,1.65
2023-02-13T08:24:12.439Z,1.35
2023-02-13T08:25:09.030Z,1.76
2023-02-13T08:26:05.713Z,1.77
2023-02-13T08:27:02.315Z,1.50
2023-02-13T08:28:00.201Z,1.72
2023-02-13T08:28:56.753Z,2.00
2023-02-13T08:29:53.329Z,1.93
2023-02-13T08:30:49.941Z,1.89
2023-02-13T08:31:46.688Z,2.01
2023-02-13T08:32:53.758Z,1.75
2023-02-13T08:33:51.073Z,1.89
2023-02-13T08:34:47.720Z,1.69
2023-02-13T08:35:44.324Z,1.99
2023-02-13T08:36:40.934Z,2.12
2023-02-13T08:37:37.518Z,2.39
2023-02-13T08:38:34.652Z,2.25
2023-02-13T08:39:31.300Z,1.49
2023-02-13T08:40:27.906Z,1.88
2023-02-13T08:41:24.750Z,1.92
2023-02-13T08:42:21.324Z,2.23
2023-02-13T08:43:17.853Z,2.86
2023-02-13T08:44:14.545Z,2.77
2023-02-13T08:45:11.781Z,2.47
2023-02-13T08:46:08.581Z,2.89
2023-02-13T08:47:05.823Z,1.98
2023-02-13T08:48:04.169Z,2.37
2023-02-13T08:49:00.886Z,2.18
2023-02-13T08:49:57.565Z,3.06
2023-02-13T08:50:54.227Z,3.11
2023-02-13T08:51:51.011Z,2.72
2023-02-13T08:52:47.608Z,2.94
2023-02-13T08:53:44.285Z,2.38
2023-02-13T08:54:40.870Z,2.65
2023-02-13T08:55:37.472Z,2.70
2023-02-13T08:56:35.108Z,2.59
2023-02-13T08:57:31.767Z,2.97
2023-02-13T08:58:28.363Z,3.31
2023-02-13T08:59:24.990Z,3.78
2023-02-13T09:00:21.965Z,3.93
2023-02-13T09:01:18.876Z,4.07
2023-02-13T09:02:15.546Z,3.45
2023-02-13T09:03:12.394Z,3.59
2023-02-13T09:04:09.127Z,4.02
2023-02-13T09:05:06.110Z,3.76
2023-02-13T09:06:03.739Z,3.61
2023-02-13T09:07:00.335Z,3.90
2023-02-13T09:07:59.278Z,4.07
2023-02-13T09:08:55.909Z,3.69
2023-02-13T09:09:52.557Z,3.12
2023-02-13T09:10:56.584Z,3.83
2023-02-13T09:11:56.241Z,3.33
2023-02-13T09:12:53.658Z,3.44
2023-02-13T09:13:53.544Z,3.60
2023-02-13T09:14:50.372Z,3.06
2023-02-13T09:15:47.008Z,2.82
2023-02-13T09:16:43.675Z,2.93
2023-02-13T09:17:40.269Z,2.89
2023-02-13T09:18:37.030Z,2.03
2023-02-13T09:19:33.743Z,2.21
2023-02-13T09:20:30.432Z,2.00
2023-02-13T09:21:27.097Z,2.75
2023-02-13T09:22:23.730Z,2.73
2023-02-13T09:23:20.311Z,2.64
2023-02-13T09:24:16.880Z,2.26
2023-02-13T09:25:13.491Z,1.95
2023-02-13T09:26:14.801Z,2.56
2023-02-13T09:27:11.441Z,2.31
2023-02-13T09:28:08.102Z,2.45
2023-02-13T09:29:04.782Z,2.54
2023-02-13T09:30:01.978Z,2.31
2023-02-13T09:30:59.655Z,1.54
2023-02-13T09:31:56.443Z,2.15
2023-02-13T09:32:54.352Z,1.53
2023-02-13T09:33:51.067Z,1.93
2023-02-13T09:34:47.611Z,1.46
2023-02-13T09:35:44.581Z,1.69
2023-02-13T09:36:41.150Z,1.73
2023-02-13T09:37:37.748Z,1.70
2023-02-13T09:38:34.955Z,1.60
2023-02-13T09:39:31.525Z,1.52
2023-02-13T09:41:00.725Z,1.65
2023-02-13T09:41:58.698Z,1.83
2023-02-13T09:43:22.706Z,2.03
2023-02-13T09:44:34.394Z,1.88
2023-02-13T09:45:31.177Z,1.51
2023-02-13T09:46:36.450Z,1.39
2023-02-13T09:47:51.264Z,1.57
2023-02-13T09:48:51.756Z,1.69
2023-02-13T09:49:52.962Z,2.12
2023-02-13T09:50:49.745Z,1.73
2023-02-13T09:51:57.348Z,2.13
2023-02-13T09:52:58.599Z,2.61
2023-02-13T09:54:02.656Z,3.27
2023-02-13T09:54:59.315Z,3.27
2023-02-13T09:56:05.870Z,2.58
2023-02-13T09:57:25.036Z,3.10
2023-02-13T09:58:40.706Z,2.91
2023-02-13T09:59:53.516Z,3.00
2023-02-13T10:00:54.480Z,3.30
2023-02-13T10:01:53.114Z,3.40
2023-02-13T10:02:59.404Z,3.57
2023-02-13T10:03:55.997Z,2.93
2023-02-13T10:05:37.372Z,2.98
2023-02-13T10:06:50.480Z,2.88
2023-02-13T10:07:56.853Z,2.71
2023-02-13T10:09:07.689Z,2.08
2023-02-13T10:10:14.115Z,2.50
2023-02-13T10:11:36.354Z,3.57
2023-02-13T10:12:49.127Z,3.09
2023-02-13T10:14:02.882Z,2.81
2023-02-13T10:15:14.577Z,3.26
2023-02-13T10:16:22.405Z,2.57
2023-02-13T10:17:23.300Z,2.20
2023-02-13T10:18:25.180Z,2.44
2023-02-13T10:19:43.469Z,3.17
2023-02-13T10:20:53.264Z,3.06
2023-02-13T10:21:56.227Z,3.09
2023-02-13T10:23:03.190Z,3.21
2023-02-13T10:24:02.000Z,3.03
2023-02-13T10:25:01.339Z,3.31
2023-02-13T10:26:01.145Z,3.71
2023-02-13T10:27:02.278Z,3.94
2023-02-13T10:28:06.726Z,3.85
2023-02-13T10:29:28.153Z,3.77
2023-02-13T10:30:30.756Z,3.78
2023-02-13T10:31:27.470Z,2.88
2023-02-13T10:32:30.300Z,3.13
2023-02-13T10:33:34.464Z,3.67
2023-02-13T10:34:38.727Z,3.14
2023-02-13T10:35:35.377Z,3.87
2023-02-13T10:36:36.449Z,3.79
2023-02-13T10:37:33.105Z,4.31
2023-02-13T10:38:33.203Z,3.97
2023-02-13T10:39:31.359Z,3.38
2023-02-13T10:40:38.163Z,3.22
2023-02-13T10:41:57.867Z,3.09
2023-02-13T10:43:09.497Z,3.37
2023-02-13T10:44:27.242Z,2.96
2023-02-13T10:46:04.398Z,3.43
2023-02-13T10:47:10.795Z,3.62
2023-02-13T10:48:37.532Z,3.52
2023-02-13T10:49:46.627Z,3.93
2023-02-13T10:51:02.473Z,3.63
2023-02-13T10:52:04.850Z,3.44
2023-02-13T10:53:20.032Z,3.42
2023-02-13T10:54:34.737Z,3.67
2023-02-13T10:55:46.656Z,4.40
2023-02-13T10:56:47.304Z,4.61
2023-02-13T10:57:43.920Z,4.40
2023-02-13T10:58:48.557Z,4.24
2023-02-13T11:00:02.380Z,4.44
2023-02-13T11:01:07.060Z,4.36
2023-02-13T11:02:30.622Z,3.90
2023-02-13T11:03:30.063Z,4.04
2023-02-13T11:04:26.769Z,3.97
2023-02-13T11:05:41.866Z,4.44
2023-02-13T11:06:46.649Z,4.13
2023-02-13T11:07:46.910Z,4.53
2023-02-13T11:08:47.245Z,4.66
2023-02-13T11:09:48.624Z,4.49
2023-02-13T11:10:45.215Z,4.49
2023-02-13T11:11:44.027Z,4.68
2023-02-13T11:12:40.788Z,3.90
2023-02-13T11:13:37.494Z,3.66
2023-02-13T11:14:34.094Z,4.00
2023-02-13T11:15:32.936Z,3.97
2023-02-13T11:16:39.840Z,4.16
2023-02-13T11:17:41.429Z,3.58
2023-02-13T11:18:41.601Z,4.45
2023-02-13T11:19:51.782Z,3.91
2023-02-13T11:21:04.124Z,3.79
2023-02-13T11:22:11.626Z,4.01
2023-02-13T11:23:26.628Z,4.05
2023-02-13T11:24:25.924Z,3.60
2023-02-13T11:25:25.562Z,3.58
2023-02-13T11:26:27.979Z,3.40
2023-02-13T11:27:27.719Z,4.02
2023-02-13T11:28:24.872Z,4.14
2023-02-13T11:29:28.300Z,4.25
2023-02-13T11:30:38.535Z,4.67
2023-02-13T11:31:37.341Z,4.77
2023-02-13T11:32:35.395Z,4.66
2023-02-13T11:33:32.142Z,5.29
2023-02-13T11:34:31.259Z,5.25
2023-02-13T11:35:33.528Z,5.41
2023-02-13T11:36:32.890Z,5.77
2023-02-13T11:37:31.675Z,5.40
2023-02-13T11:38:28.376Z,5.31
2023-02-13T11:39:26.977Z,5.46
2023-02-13T11:40:31.845Z,5.53
2023-02-13T11:41:30.227Z,5.57
2023-02-13T11:42:33.979Z,6.10
2023-02-13T11:43:36.816Z,5.94
2023-02-13T11:44:33.801Z,5.97
2023-02-13T11:45:30.547Z,5.84
2023-02-13T11:46:30.630Z,5.93
2023-02-13T11:47:35.728Z,5.81
2023-02-13T11:48:32.560Z,5.65
2023-02-13T11:49:36.116Z,5.81
2023-02-13T11:50:37.842Z,5.47
2023-02-13T11:51:52.997Z,5.52
2023-02-13T11:53:00.295Z,6.01
2023-02-13T11:54:01.038Z,6.17
2023-02-13T11:55:23.940Z,6.28
2023-02-13T11:56:20.583Z,5.71
2023-02-13T11:57:23.374Z,5.87
2023-02-13T11:58:26.062Z,5.36
2023-02-13T11:59:24.826Z,5.59
2023-02-13T12:00:31.028Z,5.43
2023-02-13T12:01:29.265Z,5.77
2023-02-13T12:02:27.885Z,6.00
2023-02-13T12:03:26.389Z,6.75
2023-02-13T12:04:23.117Z,6.64
2023-02-13T12:05:26.222Z,6.75
2023-02-13T12:06:22.909Z,5.85
2023-02-13T12:07:23.892Z,6.30
2023-02-13T12:08:21.332Z,6.60
2023-02-13T12:09:17.896Z,7.13
2023-02-13T12:10:33.361Z,6.71
2023-02-13T12:11:52.472Z,6.52
2023-02-13T12:13:27.700Z,6.06
2023-02-13T12:14:32.740Z,6.49
2023-02-13T12:15:33.213Z,6.58
2023-02-13T12:16:40.579Z,5.89
2023-02-13T12:17:37.378Z,5.15
2023-02-13T12:18:36.637Z,6.02
2023-02-13T12:19:36.320Z,6.41
2023-02-13T12:20:44.005Z,6.03
2023-02-13T12:22:18.279Z,6.74
2023-02-13T12:23:28.387Z,6.80
2023-02-13T12:24:51.447Z,6.45
2023-02-13T12:26:02.308Z,5.83
2023-02-13T12:27:25.107Z,5.93
2023-02-13T12:28:57.151Z,6.27
2023-02-13T12:30:09.562Z,6.08
2023-02-13T12:31:21.119Z,6.56
2023-02-13T12:32:21.565Z,6.28
2023-02-13T12:33:18.199Z,6.25
2023-02-13T12:34:23.994Z,6.68
2023-02-13T12:35:35.492Z,6.81
2023-02-13T12:36:54.498Z,6.50
2023-02-13T12:38:35.520Z,6.45
2023-02-13T12:39:41.502Z,5.83
2023-02-13T12:40:51.714Z,5.53
2023-02-13T12:42:06.815Z,5.97
2023-02-13T12:43:41.462Z,5.75
2023-02-13T12:44:38.093Z,6.46
2023-02-13T12:46:03.044Z,6.64
2023-02-13T12:47:15.833Z,6.68
2023-02-13T12:48:30.783Z,6.82
2023-02-13T12:49:30.282Z,6.75
2023-02-13T12:50:55.818Z,6.39
2023-02-13T12:52:17.794Z,6.31
2023-02-13T12:53:27.490Z,6.25
2023-02-13T12:54:49.651Z,6.12
2023-02-13T12:56:00.694Z,6.14
2023-02-13T12:57:10.242Z,6.11
2023-02-13T12:58:23.329Z,5.91
2023-02-13T12:59:28.955Z,6.28
2023-02-13T13:00:33.882Z,6.15
2023-02-13T13:02:07.795Z,5.93
2023-02-13T13:03:10.369Z,5.70
2023-02-13T13:04:14.652Z,6.19
2023-02-13T13:05:43.301Z,6.21
2023-02-13T13:06:45.983Z,6.32
2023-02-13T13:07:58.995Z,6.39
2023-02-13T13:08:58.369Z,6.49
2023-02-13T13:10:16.970Z,6.62
2023-02-13T13:11:22.427Z,6.33
2023-02-13T13:12:21.853Z,6.65
2023-02-13T13:13:37.037Z,6.90
2023-02-13T13:14:52.404Z,6.48
2023-02-13T13:15:48.888Z,6.74
2023-02-13T13:17:00.288Z,6.81
2023-02-13T13:18:07.332Z,6.14
2023-02-13T13:19:27.229Z,6.23
2023-02-13T13:21:06.953Z,6.05
2023-02-13T13:22:29.308Z,5.96
2023-02-13T13:24:03.254Z,6.53
2023-02-13T13:25:18.633Z,6.05
2023-02-13T13:26:21.415Z,6.77
2023-02-13T13:27:26.341Z,6.62
2023-02-13T13:28:27.060Z,5.90
2023-02-13T13:29:26.588Z,6.73
2023-02-13T13:30:25.284Z,6.03
2023-02-13T13:31:26.327Z,5.89
2023-02-13T13:32:23.205Z,5.79